createdAt,value
2023-02-22T00:00:48.779Z,8.03
2023-02-22T00:03:25.023Z,9.33
2023-02-22T00:06:04.358Z,8.53
2023-02-22T00:08:34.622Z,9.00
2023-02-22T00:11:03.509Z,8.80
2023-02-22T00:13:30.511Z,8.67
2023-02-22T00:15:58.167Z,8.93
2023-02-22T00:18:27.992Z,10.90
2023-02-22T00:21:00.304Z,10.40
2023-02-22T00:23:29.559Z,9.47
2023-02-22T00:25:58.713Z,9.47
2023-02-22T00:28:25.545Z,9.47
2023-02-22T00:30:52.740Z,9.50
2023-02-22T00:33:19.356Z,9.77
2023-02-22T00:35:46.266Z,8.87
2023-02-22T00:38:14.820Z,8.80
2023-02-22T00:40:41.460Z,9.60
2023-02-22T00:43:08.096Z,10.67
2023-02-22T00:45:36.636Z,10.50
2023-02-22T00:48:05.393Z,9.40
2023-02-22T00:50:32.543Z,10.50
2023-02-22T00:53:01.571Z,9.97
2023-02-22T00:55:34.234Z,10.87
2023-02-22T00:58:02.091Z,9.83
2023-02-22T01:00:33.953Z,11.10
2023-02-22T01:03:00.485Z,9.83
2023-02-22T01:05:29.243Z,10.33
2023-02-22T01:07:57.135Z,9.83
2023-02-22T01:10:25.704Z,9.90
2023-02-22T01:12:52.761Z,10.47
2023-02-22T01:15:23.898Z,12.07
2023-02-22T01:17:53.530Z,11.13
2023-02-22T01:20:25.979Z,10.30
2023-02-22T01:22:54.676Z,10.37
2023-02-22T01:25:23.997Z,11.43
2023-02-22T01:27:51.722Z,10.93
2023-02-22T01:30:24.054Z,12.97
2023-02-22T01:32:53.558Z,11.93
2023-02-22T01:35:23.901Z,11.47
2023-02-22T01:37:50.333Z,12.00
2023-02-22T01:40:23.751Z,12.40
2023-02-22T01:42:57.787Z,12.50
2023-02-22T01:45:30.651Z,13.03
2023-02-22T01:48:01.982Z,12.67
2023-02-22T01:50:30.217Z,13.23
2023-02-22T01:52:56.776Z,11.70
2023-02-22T01:55:23.531Z,13.23
2023-02-22T01:57:49.974Z,12.13
2023-02-22T02:00:21.153Z,12.90
2023-02-22T02:03:01.778Z,12.63
2023-02-22T02:05:31.718Z,12.93
2023-02-22T02:08:03.563Z,11.73
2023-02-22T02:10:31.732Z,13.47
2023-02-22T02:12:58.571Z,14.07
2023-02-22T02:15:32.207Z,13.63
2023-02-22T02:18:06.028Z,11.97
2023-02-22T02:20:42.153Z,14.10
2023-02-22T02:23:34.477Z,12.83
2023-02-22T02:26:29.028Z,11.33
2023-02-22T02:29:21.596Z,11.03
2023-02-22T02:32:06.327Z,13.07
2023-02-22T02:34:40.658Z,12.07
2023-02-22T02:37:28.082Z,12.63
2023-02-22T02:40:11.380Z,12.37
2023-02-22T02:43:15.257Z,12.93
2023-02-22T02:45:57.383Z,12.20
2023-02-22T02:48:28.193Z,11.93
2023-02-22T02:50:58.640Z,12.87
2023-02-22T02:53:34.312Z,12.00
2023-02-22T02:56:00.739Z,11.53
2023-02-22T02:58:27.951Z,13.77
2023-02-22T03:00:58.443Z,13.63
2023-02-22T03:03:52.466Z,12.37
2023-02-22T03:06:40.530Z,13.57
2023-02-22T03:09:39.038Z,11.67
2023-02-22T03:12:32.666Z,10.83
2023-02-22T03:15:17.210Z,13.23
2023-02-22T03:17:54.082Z,13.40
2023-02-22T03:20:34.023Z,13.07
2023-02-22T03:23:10.936Z,11.33
2023-02-22T03:25:43.200Z,11.30
2023-02-22T03:28:12.958Z,12.67
2023-02-22T03:30:46.738Z,12.40
2023-02-22T03:33:20.388Z,12.27
2023-02-22T03:35:56.770Z,11.90
2023-02-22T03:38:27.792Z,12.50
2023-02-22T03:40:59.284Z,12.70
2023-02-22T03:43:31.478Z,12.60
2023-02-22T03:45:59.372Z,12.00
2023-02-22T03:48:36.467Z,13.03
2023-02-22T03:51:04.517Z,13.13
2023-02-22T03:53:33.940Z,13.37
2023-02-22T03:56:02.962Z,13.20
2023-02-22T03:58:33.021Z,13.27
2023-02-22T04:00:59.809Z,13.30
2023-02-22T04:03:26.307Z,13.73
2023-02-22T04:05:52.771Z,14.47
2023-02-22T04:08:19.311Z,13.90
2023-02-22T04:10:45.833Z,15.03
2023-02-22T04:13:14.551Z,12.80
2023-02-22T04:15:41.046Z,14.27
2023-02-22T04:18:07.557Z,15.80
2023-02-22T04:20:34.907Z,14.03
2023-02-22T04:23:01.386Z,13.03
2023-02-22T04:25:27.970Z,13.20
2023-02-22T04:27:54.379Z,13.63
2023-02-22T04:30:21.370Z,13.63
2023-02-22T04:32:48.122Z,15.10
2023-02-22T04:35:14.751Z,14.63
2023-02-22T04:37:41.195Z,14.97
2023-02-22T04:40:08.256Z,14.37
2023-02-22T04:42:36.102Z,14.57
2023-02-22T04:45:03.417Z,12.63
2023-02-22T04:47:29.955Z,14.43
2023-02-22T04:49:56.452Z,14.37
2023-02-22T04:52:22.884Z,14.07
2023-02-22T04:54:49.302Z,13.20
2023-02-22T04:57:15.747Z,14.80
2023-02-22T04:59:42.240Z,14.97
2023-02-22T05:02:08.849Z,14.77
2023-02-22T05:04:37.846Z,13.40
2023-02-22T05:07:05.055Z,13.83
2023-02-22T05:09:31.543Z,13.80
2023-02-22T05:11:58.003Z,14.03
2023-02-22T05:14:26.827Z,14.90
2023-02-22T05:16:59.608Z,14.77
2023-02-22T05:19:26.131Z,14.77
2023-02-22T05:21:52.527Z,14.50
2023-02-22T05:24:19.089Z,15.00
2023-02-22T05:26:46.405Z,13.60
2023-02-22T05:29:13.211Z,12.33
2023-02-22T05:31:41.854Z,13.00
2023-02-22T05:34:11.354Z,13.93
2023-02-22T05:36:37.868Z,15.17
2023-02-22T05:39:05.489Z,14.57
2023-02-22T05:41:32.096Z,16.37
2023-02-22T05:43:58.701Z,15.10
2023-02-22T05:46:25.249Z,14.97
2023-02-22T05:48:51.787Z,13.73
2023-02-22T05:51:19.657Z,15.37
2023-02-22T05:53:46.420Z,14.67
2023-02-22T05:56:12.827Z,12.30
2023-02-22T05:58:39.225Z,13.07
2023-02-22T06:01:05.836Z,15.53
2023-02-22T06:03:32.298Z,13.47
2023-02-22T06:05:58.918Z,14.70
2023-02-22T06:08:25.307Z,13.13
2023-02-22T06:10:51.766Z,15.67
2023-02-22T06:13:18.213Z,13.27
2023-02-22T06:15:44.715Z,12.53
2023-02-22T06:18:11.207Z,13.30
2023-02-22T06:20:37.778Z,12.73
2023-02-22T06:23:04.561Z,14.50
2023-02-22T06:25:31.877Z,13.13
2023-02-22T06:28:00.500Z,14.07
2023-02-22T06:30:27.357Z,12.93
2023-02-22T06:32:53.883Z,12.77
2023-02-22T06:35:20.769Z,12.30
2023-02-22T06:37:47.554Z,12.30
2023-02-22T06:40:14.642Z,12.63
2023-02-22T06:42:41.542Z,11.87
2023-02-22T06:45:08.753Z,11.43
2023-02-22T06:47:41.298Z,12.97
2023-02-22T06:50:11.883Z,13.53
2023-02-22T06:52:42.672Z,12.13
2023-02-22T06:55:09.158Z,13.13
2023-02-22T06:57:35.614Z,14.27
2023-02-22T07:00:02.045Z,12.97
2023-02-22T07:02:28.502Z,14.20
2023-02-22T07:04:54.904Z,13.67
2023-02-22T07:07:25.138Z,12.60
2023-02-22T07:09:51.561Z,12.90
2023-02-22T07:12:18.018Z,11.30
2023-02-22T07:14:44.467Z,12.00
2023-02-22T07:17:11.576Z,10.57
2023-02-22T07:19:38.902Z,11.47
2023-02-22T07:22:06.228Z,13.30
2023-02-22T07:24:35.061Z,13.37
2023-02-22T07:27:02.544Z,11.60
2023-02-22T07:29:29.169Z,12.23
2023-02-22T07:31:56.066Z,11.63
2023-02-22T07:34:22.520Z,13.10
2023-02-22T07:36:49.119Z,12.00
2023-02-22T07:39:15.599Z,13.27
2023-02-22T07:41:42.043Z,12.30
2023-02-22T07:44:08.467Z,13.37
2023-02-22T07:46:34.907Z,13.73
2023-02-22T07:49:01.359Z,12.57
2023-02-22T07:51:27.823Z,13.23
2023-02-22T07:53:54.325Z,12.77
2023-02-22T07:56:20.801Z,12.50
2023-02-22T07:58:47.290Z,12.77
2023-02-22T08:01:14.365Z,12.37
2023-02-22T08:03:40.827Z,13.57
2023-02-22T08:06:08.311Z,12.27
2023-02-22T08:08:35.153Z,12.83
2023-02-22T08:11:01.675Z,13.47
2023-02-22T08:13:28.225Z,13.70
2023-02-22T08:15:55.078Z,12.57
2023-02-22T08:18:23.612Z,12.70
2023-02-22T08:20:52.165Z,12.27
2023-02-22T08:23:20.111Z,11.93
2023-02-22T08:25:46.658Z,11.87
2023-02-22T08:28:15.681Z,13.57
2023-02-22T08:30:43.807Z,12.20
2023-02-22T08:33:14.356Z,11.57
2023-02-22T08:35:41.376Z,12.67
2023-02-22T08:38:14.649Z,11.77
2023-02-22T08:40:41.071Z,13.30
2023-02-22T08:43:07.513Z,11.50
2023-02-22T08:45:34.000Z,12.33
2023-02-22T08:48:00.482Z,13.40
2023-02-22T08:50:30.133Z,12.77
2023-02-22T08:52:59.372Z,11.83
2023-02-22T08:55:28.878Z,12.17
2023-02-22T08:57:55.324Z,14.60
2023-02-22T09:00:25.264Z,13.27
2023-02-22T09:02:52.712Z,13.43
2023-02-22T09:05:19.547Z,12.40
2023-02-22T09:07:46.048Z,14.17
2023-02-22T09:10:17.698Z,13.50
2023-02-22T09:12:44.257Z,13.33
2023-02-22T09:15:11.506Z,13.87
2023-02-22T09:17:38.511Z,13.40
2023-02-22T09:20:06.772Z,14.43
2023-02-22T09:22:33.344Z,13.63
2023-02-22T09:25:02.631Z,14.83
2023-02-22T09:27:34.373Z,14.20
2023-02-22T09:30:00.894Z,13.77
2023-02-22T09:32:28.109Z,13.60
2023-02-22T09:34:55.711Z,13.37
2023-02-22T09:37:22.345Z,14.43
2023-02-22T09:39:48.896Z,13.87
2023-02-22T09:42:21.069Z,12.97
2023-02-22T09:44:55.704Z,14.23
2023-02-22T09:47:38.853Z,13.33
2023-02-22T09:50:16.108Z,13.60
2023-02-22T09:52:42.461Z,14.13
2023-02-22T09:55:39.305Z,14.47
2023-02-22T09:58:39.777Z,13.73
2023-02-22T10:01:20.050Z,13.73
2023-02-22T10:03:56.559Z,12.63
2023-02-22T10:06:25.077Z,13.43
2023-02-22T10:08:56.402Z,14.77
2023-02-22T10:11:28.668Z,15.00
2023-02-22T10:14:20.061Z,13.70
2023-02-22T10:17:22.987Z,14.20
2023-02-22T10:19:49.405Z,13.83
2023-02-22T10:22:34.029Z,14.13
2023-02-22T10:25:05.209Z,15.23
2023-02-22T10:27:42.297Z,15.77
2023-02-22T10:30:25.109Z,15.17
2023-02-22T10:33:05.257Z,15.17
2023-02-22T10:35:37.409Z,15.80
2023-02-22T10:38:20.352Z,15.83
2023-02-22T10:40:55.451Z,14.17
2023-02-22T10:43:23.394Z,14.93
2023-02-22T10:45:55.819Z,14.20
2023-02-22T10:48:24.976Z,14.77
2023-02-22T10:50:54.126Z,16.53
2023-02-22T10:53:20.514Z,16.10
2023-02-22T10:56:05.673Z,15.27
2023-02-22T10:58:41.805Z,14.50
2023-02-22T11:01:20.497Z,13.53
2023-02-22T11:03:57.212Z,13.40
2023-02-22T11:06:24.162Z,14.47
2023-02-22T11:08:52.134Z,13.43
2023-02-22T11:11:25.860Z,12.93
2023-02-22T11:13:56.609Z,13.53
2023-02-22T11:16:25.866Z,11.60
2023-02-22T11:19:01.473Z,10.43
2023-02-22T11:21:31.560Z,12.43
2023-02-22T11:24:08.718Z,12.67
2023-02-22T11:26:54.956Z,12.23
2023-02-22T11:29:27.533Z,12.77
2023-02-22T11:31:55.613Z,12.23
2023-02-22T11:34:29.001Z,12.07
2023-02-22T11:36:56.555Z,11.77
2023-02-22T11:39:29.051Z,12.13
2023-02-22T11:41:56.648Z,11.93
2023-02-22T11:44:24.825Z,12.20
2023-02-22T11:46:55.741Z,11.97
2023-02-22T11:49:34.008Z,11.43
2023-02-22T11:52:14.415Z,13.00
2023-02-22T11:55:43.251Z,12.43
2023-02-22T11:58:40.613Z,13.03
2023-02-22T12:01:22.187Z,13.37
2023-02-22T12:03:51.737Z,12.47
2023-02-22T12:06:40.438Z,12.73
2023-02-22T12:09:41.968Z,12.73
2023-02-22T12:12:21.518Z,12.20
2023-02-22T12:15:07.612Z,12.33
2023-02-22T12:18:06.492Z,12.57
2023-02-22T12:20:40.671Z,12.27
2023-02-22T12:23:10.114Z,16.87
2023-02-22T12:25:45.068Z,13.70
2023-02-22T12:28:24.840Z,14.23
2023-02-22T12:31:23.657Z,13.03
2023-02-22T12:33:57.165Z,12.47
2023-02-22T12:36:33.004Z,13.10
2023-02-22T12:39:07.397Z,11.87
2023-02-22T12:41:48.416Z,13.17
2023-02-22T12:44:20.327Z,12.70
2023-02-22T12:46:54.961Z,12.33
2023-02-22T12:50:03.378Z,12.33
2023-02-22T12:52:47.791Z,11.83
2023-02-22T12:55:23.154Z,9.47
2023-02-22T12:57:59.530Z,9.20
2023-02-22T13:00:43.082Z,11.73
2023-02-22T13:03:18.318Z,11.17
2023-02-22T13:05:55.094Z,9.83
2023-02-22T13:08:34.268Z,10.40
2023-02-22T13:11:36.904Z,9.93
2023-02-22T13:14:37.849Z,9.90
2023-02-22T13:17:22.538Z,10.00
2023-02-22T13:20:07.822Z,10.07
2023-02-22T13:22:43.313Z,11.87
2023-02-22T13:25:19.640Z,10.17
2023-02-22T13:27:52.459Z,11.47
2023-02-22T13:30:38.943Z,10.70
2023-02-22T13:33:17.297Z,11.27
2023-02-22T13:36:03.721Z,10.43
2023-02-22T13:38:45.836Z,11.13
2023-02-22T13:41:40.084Z,10.70
2023-02-22T13:44:23.318Z,9.70
2023-02-22T13:47:05.062Z,11.77
2023-02-22T13:49:53.399Z,10.93
2023-02-22T13:52:26.149Z,10.03
2023-02-22T13:55:00.311Z,11.20
2023-02-22T13:57:48.559Z,11.00
2023-02-22T14:00:14.972Z,10.67
2023-02-22T14:03:02.442Z,10.33
2023-02-22T14:05:51.964Z,11.07
2023-02-22T14:08:25.368Z,10.83
2023-02-22T14:10:56.390Z,11.67
2023-02-22T14:13:30.519Z,11.50
2023-02-22T14:16:02.754Z,12.13
2023-02-22T14:18:33.900Z,12.03
2023-02-22T14:21:07.926Z,11.70
2023-02-22T14:23:40.420Z,10.97
2023-02-22T14:26:15.881Z,11.70
2023-02-22T14:28:50.098Z,10.03
2023-02-22T14:31:34.977Z,11.33
2023-02-22T14:34:09.404Z,10.07
2023-02-22T14:37:07.643Z,11.27
2023-02-22T14:39:43.525Z,10.80
2023-02-22T14:42:25.407Z,10.93
2023-02-22T14:45:04.890Z,11.13
2023-02-22T14:47:49.884Z,9.70
2023-02-22T14:50:27.045Z,9.83
2023-02-22T14:53:11.562Z,11.70
2023-02-22T14:55:46.795Z,9.90
2023-02-22T14:58:25.687Z,10.57
2023-02-22T15:00:56.630Z,11.30
2023-02-22T15:03:39.804Z,10.43
2023-02-22T15:06:10.931Z,10.17
2023-02-22T15:08:41.641Z,10.03
2023-02-22T15:11:31.016Z,10.60
2023-02-22T15:13:58.390Z,11.13
2023-02-22T15:16:27.701Z,10.83
2023-02-22T15:18:58.014Z,11.33
2023-02-22T15:21:27.549Z,10.53
2023-02-22T15:24:07.713Z,11.13
2023-02-22T15:26:51.899Z,11.60
2023-02-22T15:29:21.425Z,11.40
2023-02-22T15:31:48.718Z,11.33
2023-02-22T15:34:15.365Z,11.47
2023-02-22T15:36:43.887Z,12.73
2023-02-22T15:39:29.586Z,12.77
2023-02-22T15:42:21.023Z,12.00
2023-02-22T15:44:49.794Z,12.00
2023-02-22T15:47:21.666Z,13.10
2023-02-22T15:50:25.947Z,11.67
2023-02-22T15:53:06.719Z,12.53
2023-02-22T15:55:47.417Z,12.60
2023-02-22T15:58:23.912Z,12.97
2023-02-22T16:00:59.440Z,12.57
2023-02-22T16:03:28.774Z,13.07
2023-02-22T16:05:57.026Z,13.00
2023-02-22T16:08:29.312Z,12.43
2023-02-22T16:11:02.810Z,13.43
2023-02-22T16:13:33.898Z,12.90
2023-02-22T16:16:02.132Z,12.00
2023-02-22T16:18:37.736Z,12.97
2023-02-22T16:21:07.712Z,13.77
2023-02-22T16:23:48.232Z,13.60
2023-02-22T16:26:29.871Z,13.97
2023-02-22T16:29:02.022Z,14.80
2023-02-22T16:31:39.713Z,14.03
2023-02-22T16:34:08.139Z,13.83
2023-02-22T16:36:41.848Z,13.37
2023-02-22T16:39:14.122Z,14.63
2023-02-22T16:41:40.647Z,13.83
2023-02-22T16:44:07.948Z,13.57
2023-02-22T16:46:35.099Z,13.10
2023-02-22T16:49:03.399Z,13.80
2023-02-22T16:51:34.955Z,14.30
2023-02-22T16:54:02.355Z,12.77
2023-02-22T16:56:31.149Z,13.17
2023-02-22T16:59:01.131Z,14.67
2023-02-22T17:01:27.644Z,14.67
2023-02-22T17:03:54.158Z,13.07
2023-02-22T17:06:21.234Z,13.03
2023-02-22T17:08:48.781Z,14.50
2023-02-22T17:11:15.260Z,13.03
2023-02-22T17:13:41.673Z,13.53
2023-02-22T17:16:14.670Z,14.40
2023-02-22T17:18:41.209Z,15.57
2023-02-22T17:21:10.760Z,16.03
2023-02-22T17:23:37.273Z,15.27
2023-02-22T17:26:04.230Z,14.07
2023-02-22T17:28:31.670Z,15.00
2023-02-22T17:31:02.578Z,15.03
2023-02-22T17:33:32.917Z,17.20
2023-02-22T17:36:01.827Z,17.27
2023-02-22T17:38:30.400Z,18.00
2023-02-22T17:40:59.453Z,18.37
2023-02-22T17:43:27.816Z,19.13
2023-02-22T17:45:54.643Z,19.73
2023-02-22T17:48:23.878Z,18.77
2023-02-22T17:50:51.305Z,21.27
2023-02-22T17:53:21.758Z,22.47
2023-02-22T17:55:48.623Z,22.80
2023-02-22T17:58:15.528Z,24.03
2023-02-22T18:00:46.072Z,24.83
2023-02-22T18:03:16.111Z,26.87
2023-02-22T18:05:46.363Z,24.07
2023-02-22T18:08:14.509Z,25.53
2023-02-22T18:10:42.490Z,26.00
2023-02-22T18:13:12.745Z,24.87
2023-02-22T18:15:40.044Z,26.17
2023-02-22T18:18:06.635Z,25.10
2023-02-22T18:20:38.267Z,26.33
2023-02-22T18:23:10.755Z,25.67
2023-02-22T18:25:38.066Z,27.80
2023-02-22T18:28:06.329Z,27.50
2023-02-22T18:30:35.852Z,25.73
2023-02-22T18:33:03.723Z,25.03
2023-02-22T18:35:30.963Z,26.83
2023-02-22T18:37:57.413Z,27.17
2023-02-22T18:40:23.967Z,25.43
2023-02-22T18:42:50.429Z,24.20
2023-02-22T18:45:17.215Z,23.97
2023-02-22T18:47:45.520Z,25.07
2023-02-22T18:50:12.995Z,26.43
2023-02-22T18:52:45.795Z,27.17
2023-02-22T18:55:17.350Z,26.03
2023-02-22T18:57:45.110Z,26.83
2023-02-22T19:00:16.803Z,25.90
2023-02-22T19:02:43.662Z,27.97
2023-02-22T19:05:11.538Z,26.70
2023-02-22T19:07:38.693Z,29.87
2023-02-22T19:10:06.950Z,27.47
2023-02-22T19:12:33.915Z,28.07
2023-02-22T19:15:00.658Z,28.23
2023-02-22T19:17:28.884Z,26.80
2023-02-22T19:19:55.913Z,26.37
2023-02-22T19:22:25.945Z,27.83
2023-02-22T19:24:55.870Z,29.90
2023-02-22T19:27:23.495Z,28.70
2023-02-22T19:29:50.027Z,28.00
2023-02-22T19:32:17.454Z,29.40
2023-02-22T19:34:44.555Z,28.43
2023-02-22T19:37:13.168Z,28.00
2023-02-22T19:39:41.841Z,28.30
2023-02-22T19:42:09.989Z,30.77
2023-02-22T19:44:37.360Z,30.30
2023-02-22T19:47:08.898Z,30.43
2023-02-22T19:49:41.041Z,32.40
2023-02-22T19:52:07.471Z,31.37
2023-02-22T19:54:33.980Z,32.77
2023-02-22T19:57:01.067Z,33.40
2023-02-22T19:59:28.155Z,29.23
2023-02-22T20:01:56.215Z,31.63
2023-02-22T20:04:23.685Z,31.10
2023-02-22T20:06:54.528Z,33.43
2023-02-22T20:09:30.316Z,33.20
2023-02-22T20:11:57.053Z,33.87
2023-02-22T20:14:28.419Z,32.60
2023-02-22T20:16:55.621Z,30.73
2023-02-22T20:19:26.711Z,33.50
2023-02-22T20:21:58.201Z,32.73
2023-02-22T20:24:25.145Z,32.40
2023-02-22T20:26:55.685Z,33.07
2023-02-22T20:29:29.279Z,32.30
2023-02-22T20:31:58.044Z,31.80
2023-02-22T20:34:26.572Z,33.67
2023-02-22T20:36:53.646Z,33.23
2023-02-22T20:39:20.296Z,30.20
2023-02-22T20:41:47.001Z,31.23
2023-02-22T20:44:16.025Z,31.57
2023-02-22T20:46:43.529Z,28.63
2023-02-22T20:49:13.257Z,30.17
2023-02-22T20:51:40.352Z,28.80
2023-02-22T20:54:08.509Z,28.57
2023-02-22T20:56:34.963Z,30.13
2023-02-22T20:59:03.734Z,31.03
2023-02-22T21:01:30.872Z,27.83
2023-02-22T21:04:05.234Z,30.17
2023-02-22T21:06:34.488Z,27.67
2023-02-22T21:09:02.920Z,28.33
2023-02-22T21:11:31.577Z,29.87
2023-02-22T21:13:59.425Z,30.10
2023-02-22T21:16:36.888Z,27.73
2023-02-22T21:19:06.517Z,28.10
2023-02-22T21:21:33.103Z,29.27
2023-02-22T21:24:01.754Z,30.43
2023-02-22T21:26:31.541Z,31.23
2023-02-22T21:29:00.671Z,27.90
2023-02-22T21:31:28.442Z,26.20
2023-02-22T21:33:58.046Z,29.00
2023-02-22T21:36:26.314Z,28.03
2023-02-22T21:39:00.988Z,29.30
2023-02-22T21:41:29.445Z,27.87
2023-02-22T21:43:57.763Z,28.03
2023-02-22T21:46:26.220Z,27.57
2023-02-22T21:48:52.766Z,28.73
2023-02-22T21:51:22.317Z,28.60
2023-02-22T21:53:53.764Z,26.50
2023-02-22T21:56:29.190Z,28.47
2023-02-22T21:59:00.416Z,25.50
2023-02-22T22:01:28.616Z,25.00
2023-02-22T22:03:56.636Z,26.63
2023-02-22T22:06:23.194Z,28.70
2023-02-22T22:08:50.409Z,25.63
2023-02-22T22:11:17.978Z,26.77
2023-02-22T22:13:45.379Z,24.73
2023-02-22T22:16:18.075Z,28.60
2023-02-22T22:18:46.843Z,28.60
2023-02-22T22:21:18.239Z,24.73
2023-02-22T22:23:47.233Z,27.53
2023-02-22T22:26:16.401Z,27.83
2023-02-22T22:28:56.049Z,26.27
2023-02-22T22:31:24.713Z,28.87
2023-02-22T22:33:52.414Z,28.73
2023-02-22T22:36:21.439Z,24.83
2023-02-22T22:38:48.713Z,27.63
2023-02-22T22:41:19.102Z,25.70
2023-02-22T22:43:46.648Z,23.77
2023-02-22T22:46:17.297Z,26.57
2023-02-22T22:48:47.017Z,25.87
2023-02-22T22:51:18.299Z,24.40
2023-02-22T22:53:46.702Z,24.00
2023-02-22T22:56:26.007Z,25.10
2023-02-22T22:58:55.643Z,25.80
2023-02-22T23:01:28.357Z,25.87
2023-02-22T23:04:01.588Z,26.50
2023-02-22T23:06:34.413Z,26.57
2023-02-22T23:09:11.761Z,26.27
2023-02-22T23:11:44.611Z,25.87
2023-02-22T23:14:14.068Z,25.20
2023-02-22T23:16:42.389Z,26.67
2023-02-22T23:19:09.335Z,25.87
2023-02-22T23:21:36.156Z,25.60
2023-02-22T23:24:06.199Z,24.57
2023-02-22T23:26:33.266Z,24.17
2023-02-22T23:29:00.469Z,25.57
2023-02-22T23:31:29.998Z,22.97
2023-02-22T23:33:58.745Z,23.37
2023-02-22T23:36:26.504Z,25.93
2023-02-22T23:38:52.998Z,26.07
2023-02-22T23:41:19.869Z,24.13
2023-02-22T23:43:47.282Z,24.50
2023-02-22T23:46:18.552Z,25.50
2023-02-22T23:48:54.541Z,25.30
2023-02-22T23:51:25.891Z,24.97
2023-02-22T23:53:55.868Z,27.57
2023-02-22T23:56:27.379Z,21.83
2023-02-22T23:58:57.385Z,25.90
